Taconite, Minnesota
Current Conditions -  °F | °C
As of 6:15 AM on Wednesday 28 Jan 2015 (Local Time) from KGPZ Reporting Station
Overcast Overcast  
Wind Chill: 16°   Ceiling: 600
Heat Index: 27°   Visibility: 6mi
Dew Point: 25°   Wind: 12mph
Humidity: 93%   Direction: 150°SSE
Pressure: 29.93"   Gusts: NA
Location:  47.31°N, 93.38°W
Report Text: KGPZ 281215Z AUTO 15010KT 6SM OVC006 M03/M04 A2993 RMK AO1
Loading
Personal Weather Stations






























Interactive Weather Map New forecast layout! Learn more

10-Day Weather Forecast

Advertisements
Track Severe Weather on mobile